Tabas Airport

Airport
ICAO code: 
OIMT
IATA Code: 
TCX
Summary
ICAO Region: 
APAC
Territory: 
Location: 
Tabas, South Khorasan
Serving: 
Tabas
Elevation: 
2312 ft
Coordinates: 
Aerial View: 
33° 40' 9.316" N, 56° 53' 49.416" E
Metar
Observation
OIMT 160730Z 02004KT 9999 SCT025 BKN090 10/09 Q1010
Station
Tabas
Date/Time
2022-01-16 07:30:00
Wind direction
20°
Wind speed
04 kts
Lowest cloud amount
scattered clouds
Temperature
10°C
Dew point
9°C
Humidity
93%
QNH
1010 hPa
Weather condition
n/a

Airport serving Tabas a city in the South Khorasan Province of central Iran.

Climatology

Cold semi-arid climate (Köppen climate classification BSk)

Runways

Designator Length Width Surface Rops
15/33 3041 45 ASP No/No
Airport map: 
Aerial View: 

SKYbrary Partners:

Safety knowledge contributed by: